Terminal Aerodrome Forecast
Issued by NWS Caribou, ME

Home | Current Version | Previous Version | Text Only | Print | Product List | Glossary On
Versions: 1 2 3 4 5 6 7 8 9 10 11 12 13 14 15 16 17 18 19 20 21 22 23
000
FTUS41 KCAR 211006 AAA
TAFBGR
TAF AMD
KBGR 211006Z 2110/2206 VRB03KT 1/4SM FG VV002
     FM211200 VRB02KT 3SM BR OVC008
     FM211400 22010KT P6SM VCSH BKN022
     FM211500 24008KT P6SM SCT035
     FM212000 24008KT P6SM BKN045=

USA.gov is the U.S. government's official web portal to all federal, state and local government web resources and services.